sensor_id;sensor_type;location;lat;lon;timestamp;pressure;altitude;pressure_sealevel;temperature;humidity
10460;BME280;54412;51.206;6.888;2023-12-20T00:01:25;100777.28;;;8.99;100.00
10460;BME280;54412;51.206;6.888;2023-12-20T00:03:51;100783.31;;;9.01;100.00
10460;BME280;54412;51.206;6.888;2023-12-20T00:06:16;100771.84;;;8.82;100.00
10460;BME280;54412;51.206;6.888;2023-12-20T00:08:42;100775.41;;;8.81;100.00
10460;BME280;54412;51.206;6.888;2023-12-20T00:11:08;100772.16;;;8.75;100.00
10460;BME280;54412;51.206;6.888;2023-12-20T00:13:33;100772.88;;;8.78;100.00
10460;BME280;54412;51.206;6.888;2023-12-20T00:15:59;100766.16;;;8.71;100.00
10460;BME280;54412;51.206;6.888;2023-12-20T00:18:25;100765.72;;;8.82;100.00
10460;BME280;54412;51.206;6.888;2023-12-20T00:20:50;100769.22;;;8.82;100.00
10460;BME280;54412;51.206;6.888;2023-12-20T00:23:16;100774.59;;;8.79;100.00
10460;BME280;54412;51.206;6.888;2023-12-20T00:25:42;100778.06;;;8.80;100.00
10460;BME280;54412;51.206;6.888;2023-12-20T00:28:07;100773.59;;;8.82;100.00
10460;BME280;54412;51.206;6.888;2023-12-20T00:30:33;100784.03;;;8.85;100.00
10460;BME280;54412;51.206;6.888;2023-12-20T00:32:59;100791.78;;;8.88;100.00
10460;BME280;54412;51.206;6.888;2023-12-20T00:35:24;100790.09;;;8.87;100.00
10460;BME280;54412;51.206;6.888;2023-12-20T00:37:50;100790.91;;;8.87;100.00
10460;BME280;54412;51.206;6.888;2023-12-20T00:40:16;100794.59;;;8.83;100.00
10460;BME280;54412;51.206;6.888;2023-12-20T00:42:41;100797.34;;;9.02;100.00
10460;BME280;54412;51.206;6.888;2023-12-20T00:45:08;100803.25;;;9.07;100.00
10460;BME280;54412;51.206;6.888;2023-12-20T00:47:33;100797.97;;;9.28;100.00
10460;BME280;54412;51.206;6.888;2023-12-20T00:49:59;100800.03;;;9.00;100.00
10460;BME280;54412;51.206;6.888;2023-12-20T00:52:25;100801.06;;;8.96;100.00
10460;BME280;54412;51.206;6.888;2023-12-20T00:54:51;100799.31;;;8.75;100.00
10460;BME280;54412;51.206;6.888;2023-12-20T00:57:17;100798.44;;;8.75;100.00
10460;BME280;54412;51.206;6.888;2023-12-20T00:59:43;100798.94;;;8.84;100.00
10460;BME280;54412;51.206;6.888;2023-12-20T01:02:08;100793.06;;;8.99;100.00
10460;BME280;54412;51.206;6.888;2023-12-20T01:04:35;100782.56;;;8.99;100.00
10460;BME280;54412;51.206;6.888;2023-12-20T01:07:01;100790.09;;;8.87;100.00
10460;BME280;54412;51.206;6.888;2023-12-20T01:09:27;100798.38;;;8.76;100.00
10460;BME280;54412;51.206;6.888;2023-12-20T01:11:53;100799.81;;;8.85;100.00
10460;BME280;54412;51.206;6.888;2023-12-20T01:14:19;100805.53;;;8.94;100.00
10460;BME280;54412;51.206;6.888;2023-12-20T01:16:45;100799.31;;;8.97;100.00
10460;BME280;54412;51.206;6.888;2023-12-20T01:19:11;100802.59;;;8.80;100.00
10460;BME280;54412;51.206;6.888;2023-12-20T01:21:36;100807.06;;;8.78;100.00
10460;BME280;54412;51.206;6.888;2023-12-20T01:24:02;100813.69;;;8.88;100.00
10460;BME280;54412;51.206;6.888;2023-12-20T01:26:28;100809.16;;;8.92;100.00
10460;BME280;54412;51.206;6.888;2023-12-20T01:28:53;100816.06;;;8.73;100.00
10460;BME280;54412;51.206;6.888;2023-12-20T01:31:19;100801.00;;;8.76;100.00
10460;BME280;54412;51.206;6.888;2023-12-20T01:33:45;100811.00;;;8.68;100.00
10460;BME280;54412;51.206;6.888;2023-12-20T01:36:11;100808.66;;;8.82;100.00
10460;BME280;54412;51.206;6.888;2023-12-20T01:38:37;100814.06;;;8.79;100.00
10460;BME280;54412;51.206;6.888;2023-12-20T01:41:03;100821.44;;;8.70;100.00
10460;BME280;54412;51.206;6.888;2023-12-20T01:43:30;100822.47;;;8.66;100.00
10460;BME280;54412;51.206;6.888;2023-12-20T01:45:59;100829.56;;;8.64;100.00
10460;BME280;54412;51.206;6.888;2023-12-20T01:48:27;100822.31;;;8.70;100.00
10460;BME280;54412;51.206;6.888;2023-12-20T01:50:54;100832.25;;;8.62;100.00
10460;BME280;54412;51.206;6.888;2023-12-20T01:53:22;100830.50;;;8.63;100.00
10460;BME280;54412;51.206;6.888;2023-12-20T01:55:52;100825.59;;;8.75;100.00
10460;BME280;54412;51.206;6.888;2023-12-20T01:58:20;100834.06;;;8.62;100.00
10460;BME280;54412;51.206;6.888;2023-12-20T02:00:46;100835.28;;;8.52;100.00
10460;BME280;54412;51.206;6.888;2023-12-20T02:03:13;100831.94;;;8.48;100.00
10460;BME280;54412;51.206;6.888;2023-12-20T02:05:39;100832.84;;;8.47;100.00
10460;BME280;54412;51.206;6.888;2023-12-20T02:08:06;100839.25;;;8.63;100.00
10460;BME280;54412;51.206;6.888;2023-12-20T02:10:32;100842.31;;;8.51;100.00
10460;BME280;54412;51.206;6.888;2023-12-20T02:12:58;100847.41;;;8.56;100.00
10460;BME280;54412;51.206;6.888;2023-12-20T02:15:24;100840.16;;;8.39;100.00
10460;BME280;54412;51.206;6.888;2023-12-20T02:17:50;100849.63;;;8.20;100.00
10460;BME280;54412;51.206;6.888;2023-12-20T02:20:16;100837.88;;;8.30;100.00
10460;BME280;54412;51.206;6.888;2023-12-20T02:22:42;100840.50;;;8.30;100.00
10460;BME280;54412;51.206;6.888;2023-12-20T02:25:08;100837.44;;;8.17;100.00
10460;BME280;54412;51.206;6.888;2023-12-20T02:27:35;100846.72;;;8.27;100.00
10460;BME280;54412;51.206;6.888;2023-12-20T02:30:00;100839.22;;;8.17;100.00
10460;BME280;54412;51.206;6.888;2023-12-20T02:32:27;100844.13;;;8.03;100.00
10460;BME280;54412;51.206;6.888;2023-12-20T02:34:55;100855.97;;;8.14;100.00
10460;BME280;54412;51.206;6.888;2023-12-20T02:37:21;100849.69;;;8.18;100.00
10460;BME280;54412;51.206;6.888;2023-12-20T02:39:47;100858.78;;;8.33;100.00
10460;BME280;54412;51.206;6.888;2023-12-20T02:42:13;100856.84;;;8.13;100.00
10460;BME280;54412;51.206;6.888;2023-12-20T02:44:39;100857.16;;;8.06;100.00
10460;BME280;54412;51.206;6.888;2023-12-20T02:47:04;100853.66;;;8.05;100.00
10460;BME280;54412;51.206;6.888;2023-12-20T02:49:30;100861.75;;;8.24;100.00
10460;BME280;54412;51.206;6.888;2023-12-20T02:51:56;100860.13;;;8.20;100.00
10460;BME280;54412;51.206;6.888;2023-12-20T02:54:21;100858.72;;;8.10;100.00
10460;BME280;54412;51.206;6.888;2023-12-20T02:56:48;100854.69;;;8.01;100.00
10460;BME280;54412;51.206;6.888;2023-12-20T02:59:13;100843.50;;;7.96;100.00
10460;BME280;54412;51.206;6.888;2023-12-20T03:01:44;100852.44;;;7.91;100.00
10460;BME280;54412;51.206;6.888;2023-12-20T03:04:11;100855.94;;;7.91;100.00
10460;BME280;54412;51.206;6.888;2023-12-20T03:06:37;100858.00;;;7.82;100.00
10460;BME280;54412;51.206;6.888;2023-12-20T03:09:02;100853.84;;;7.76;100.00
10460;BME280;54412;51.206;6.888;2023-12-20T03:11:28;100859.25;;;7.96;100.00
10460;BME280;54412;51.206;6.888;2023-12-20T03:13:55;100857.94;;;8.08;100.00
10460;BME280;54412;51.206;6.888;2023-12-20T03:16:21;100864.44;;;7.73;100.00
10460;BME280;54412;51.206;6.888;2023-12-20T03:18:46;100850.63;;;7.93;100.00
10460;BME280;54412;51.206;6.888;2023-12-20T03:21:12;100858.31;;;7.97;100.00
10460;BME280;54412;51.206;6.888;2023-12-20T03:23:38;100864.00;;;7.85;100.00
10460;BME280;54412;51.206;6.888;2023-12-20T03:26:06;100857.84;;;7.86;100.00
10460;BME280;54412;51.206;6.888;2023-12-20T03:28:32;100858.56;;;7.91;100.00
10460;BME280;54412;51.206;6.888;2023-12-20T03:30:58;100853.00;;;7.99;100.00
10460;BME280;54412;51.206;6.888;2023-12-20T03:33:24;100853.59;;;8.07;100.00
10460;BME280;54412;51.206;6.888;2023-12-20T03:35:49;100849.44;;;8.01;100.00
10460;BME280;54412;51.206;6.888;2023-12-20T03:38:15;100843.22;;;7.79;100.00
10460;BME280;54412;51.206;6.888;2023-12-20T03:40:41;100845.84;;;7.79;100.00
10460;BME280;54412;51.206;6.888;2023-12-20T03:43:06;100837.75;;;7.85;100.00
10460;BME280;54412;51.206;6.888;2023-12-20T03:45:32;100844.28;;;7.74;100.00
10460;BME280;54412;51.206;6.888;2023-12-20T03:47:58;100831.44;;;7.91;100.00
10460;BME280;54412;51.206;6.888;2023-12-20T03:50:23;100838.81;;;7.80;100.00
10460;BME280;54412;51.206;6.888;2023-12-20T03:52:49;100839.03;;;7.74;100.00
10460;BME280;54412;51.206;6.888;2023-12-20T03:55:15;100843.53;;;7.70;100.00
10460;BME280;54412;51.206;6.888;2023-12-20T03:57:41;100838.13;;;7.50;100.00
10460;BME280;54412;51.206;6.888;2023-12-20T04:00:08;100842.22;;;7.59;100.00
10460;BME280;54412;51.206;6.888;2023-12-20T04:02:38;100853.03;;;7.74;100.00
10460;BME280;54412;51.206;6.888;2023-12-20T04:05:04;100850.69;;;7.90;100.00
10460;BME280;54412;51.206;6.888;2023-12-20T04:07:30;100852.97;;;7.76;100.00
10460;BME280;54412;51.206;6.888;2023-12-20T04:09:56;100858.06;;;7.80;100.00
10460;BME280;54412;51.206;6.888;2023-12-20T04:12:22;100851.00;;;7.82;100.00
10460;BME280;54412;51.206;6.888;2023-12-20T04:14:48;100847.47;;;7.59;100.00
10460;BME280;54412;51.206;6.888;2023-12-20T04:17:15;100839.72;;;7.54;100.00
10460;BME280;54412;51.206;6.888;2023-12-20T04:19:42;100833.31;;;7.63;100.00
10460;BME280;54412;51.206;6.888;2023-12-20T04:22:08;100836.78;;;7.63;100.00
10460;BME280;54412;51.206;6.888;2023-12-20T04:24:34;100838.28;;;7.46;100.00
10460;BME280;54412;51.206;6.888;2023-12-20T04:27:01;100854.78;;;7.49;100.00
10460;BME280;54412;51.206;6.888;2023-12-20T04:29:27;100855.69;;;7.48;100.00
10460;BME280;54412;51.206;6.888;2023-12-20T04:31:52;100850.78;;;7.64;100.00
10460;BME280;54412;51.206;6.888;2023-12-20T04:34:18;100852.34;;;7.69;100.00
10460;BME280;54412;51.206;6.888;2023-12-20T04:36:44;100850.78;;;7.64;100.00
10460;BME280;54412;51.206;6.888;2023-12-20T04:39:12;100853.91;;;7.49;100.00
10460;BME280;54412;51.206;6.888;2023-12-20T04:41:38;100856.16;;;7.59;100.00
10460;BME280;54412;51.206;6.888;2023-12-20T04:44:04;100858.56;;;7.40;100.00
10460;BME280;54412;51.206;6.888;2023-12-20T04:46:30;100853.53;;;7.59;100.00
10460;BME280;54412;51.206;6.888;2023-12-20T04:48:55;100859.91;;;7.52;100.00
10460;BME280;54412;51.206;6.888;2023-12-20T04:51:21;100850.13;;;7.31;100.00
10460;BME280;54412;51.206;6.888;2023-12-20T04:53:47;100859.06;;;7.52;100.00
10460;BME280;54412;51.206;6.888;2023-12-20T04:56:13;100858.09;;;7.54;100.00
10460;BME280;54412;51.206;6.888;2023-12-20T04:58:38;100851.47;;;7.44;100.00
10460;BME280;54412;51.206;6.888;2023-12-20T05:01:07;100856.09;;;7.36;100.00
10460;BME280;54412;51.206;6.888;2023-12-20T05:03:33;100855.69;;;7.48;100.00
10460;BME280;54412;51.206;6.888;2023-12-20T05:05:59;100847.41;;;7.60;100.00
10460;BME280;54412;51.206;6.888;2023-12-20T05:08:25;100853.81;;;7.52;100.00
10460;BME280;54412;51.206;6.888;2023-12-20T05:10:54;100846.03;;;7.49;100.00
10460;BME280;54412;51.206;6.888;2023-12-20T05:13:20;100851.59;;;7.39;100.00
10460;BME280;54412;51.206;6.888;2023-12-20T05:15:46;100854.25;;;7.64;100.00
10460;BME280;54412;51.206;6.888;2023-12-20T05:18:12;100853.09;;;7.47;100.00
10460;BME280;54412;51.206;6.888;2023-12-20T05:20:39;100857.50;;;7.20;100.00
10460;BME280;54412;51.206;6.888;2023-12-20T05:23:05;100852.81;;;7.29;100.00
10460;BME280;54412;51.206;6.888;2023-12-20T05:25:30;100858.41;;;7.45;100.00
10460;BME280;54412;51.206;6.888;2023-12-20T05:27:56;100858.25;;;7.50;100.00
10460;BME280;54412;51.206;6.888;2023-12-20T05:30:22;100866.06;;;7.25;100.00
10460;BME280;54412;51.206;6.888;2023-12-20T05:32:48;100861.19;;;7.40;100.00
10460;BME280;54412;51.206;6.888;2023-12-20T05:35:14;100867.50;;;7.35;100.00
10460;BME280;54412;51.206;6.888;2023-12-20T05:37:41;100862.66;;;7.49;100.00
10460;BME280;54412;51.206;6.888;2023-12-20T05:40:07;100864.72;;;7.39;100.00
10460;BME280;54412;51.206;6.888;2023-12-20T05:42:36;100861.22;;;7.13;100.00
10460;BME280;54412;51.206;6.888;2023-12-20T05:45:04;100867.19;;;7.44;100.00
10460;BME280;54412;51.206;6.888;2023-12-20T05:47:30;100875.78;;;7.23;100.00
10460;BME280;54412;51.206;6.888;2023-12-20T05:49:55;100870.53;;;7.23;100.00
10460;BME280;54412;51.206;6.888;2023-12-20T05:52:21;100857.56;;;7.45;100.00
10460;BME280;54412;51.206;6.888;2023-12-20T05:54:47;100851.31;;;7.22;100.00
10460;BME280;54412;51.206;6.888;2023-12-20T05:57:13;100852.50;;;7.38;100.00
10460;BME280;54412;51.206;6.888;2023-12-20T05:59:39;100850.19;;;7.29;100.00
10460;BME280;54412;51.206;6.888;2023-12-20T06:02:05;100847.91;;;7.45;100.00
10460;BME280;54412;51.206;6.888;2023-12-20T06:04:31;100855.13;;;7.38;100.00
10460;BME280;54412;51.206;6.888;2023-12-20T06:06:57;100857.50;;;7.46;100.00
10460;BME280;54412;51.206;6.888;2023-12-20T06:09:23;100857.28;;;7.52;100.00
10460;BME280;54412;51.206;6.888;2023-12-20T06:11:49;100856.16;;;7.59;100.00
10460;BME280;54412;51.206;6.888;2023-12-20T06:14:16;100856.47;;;7.76;100.00
10460;BME280;54412;51.206;6.888;2023-12-20T06:16:41;100866.84;;;7.79;100.00
10460;BME280;54412;51.206;6.888;2023-12-20T06:19:07;100862.41;;;7.81;100.00
10460;BME280;54412;51.206;6.888;2023-12-20T06:21:33;100860.88;;;7.99;100.00
10460;BME280;54412;51.206;6.888;2023-12-20T06:23:59;100849.53;;;7.98;100.00
10460;BME280;54412;51.206;6.888;2023-12-20T06:26:25;100860.13;;;7.97;100.00
10460;BME280;54412;51.206;6.888;2023-12-20T06:28:51;100857.31;;;8.01;100.00
10460;BME280;54412;51.206;6.888;2023-12-20T06:31:16;100865.19;;;8.01;100.00
10460;BME280;54412;51.206;6.888;2023-12-20T06:33:43;100864.66;;;7.92;100.00
10460;BME280;54412;51.206;6.888;2023-12-20T06:36:13;100858.69;;;7.87;100.00
10460;BME280;54412;51.206;6.888;2023-12-20T06:38:39;100857.72;;;7.65;100.00
10460;BME280;54412;51.206;6.888;2023-12-20T06:41:05;100860.66;;;7.56;100.00
10460;BME280;54412;51.206;6.888;2023-12-20T06:43:31;100864.75;;;7.64;100.00
10460;BME280;54412;51.206;6.888;2023-12-20T06:45:58;100866.31;;;7.70;100.00
10460;BME280;54412;51.206;6.888;2023-12-20T06:48:24;100858.72;;;7.36;100.00
10460;BME280;54412;51.206;6.888;2023-12-20T06:50:49;100870.38;;;7.27;100.00
10460;BME280;54412;51.206;6.888;2023-12-20T06:53:15;100861.38;;;7.34;100.00
10460;BME280;54412;51.206;6.888;2023-12-20T06:55:42;100865.13;;;7.54;100.00
10460;BME280;54412;51.206;6.888;2023-12-20T06:58:07;100865.28;;;7.49;100.00
10460;BME280;54412;51.206;6.888;2023-12-20T07:00:34;100879.69;;;7.36;100.00
10460;BME280;54412;51.206;6.888;2023-12-20T07:03:00;100865.13;;;7.54;100.00
10460;BME280;54412;51.206;6.888;2023-12-20T07:05:26;100865.81;;;7.59;100.00
10460;BME280;54412;51.206;6.888;2023-12-20T07:07:52;100870.53;;;7.74;100.00
10460;BME280;54412;51.206;6.888;2023-12-20T07:10:18;100864.75;;;7.64;100.00
10460;BME280;54412;51.206;6.888;2023-12-20T07:12:43;100864.47;;;7.47;100.00
10460;BME280;54412;51.206;6.888;2023-12-20T07:15:10;100868.63;;;7.28;100.00
10460;BME280;54412;51.206;6.888;2023-12-20T07:17:37;100863.25;;;7.57;100.00
10460;BME280;54412;51.206;6.888;2023-12-20T07:20:03;100860.78;;;7.53;100.00
10460;BME280;54412;51.206;6.888;2023-12-20T07:22:33;100867.34;;;7.66;100.00
10460;BME280;54412;51.206;6.888;2023-12-20T07:25:00;100858.66;;;7.64;100.00
10460;BME280;54412;51.206;6.888;2023-12-20T07:27:26;100860.88;;;7.50;100.00
10460;BME280;54412;51.206;6.888;2023-12-20T07:29:52;100863.41;;;7.53;100.00
10460;BME280;54412;51.206;6.888;2023-12-20T07:32:18;100865.97;;;7.54;100.00
10460;BME280;54412;51.206;6.888;2023-12-20T07:34:44;100867.97;;;7.72;100.00
10460;BME280;54412;51.206;6.888;2023-12-20T07:37:09;100859.88;;;7.78;100.00
10460;BME280;54412;51.206;6.888;2023-12-20T07:39:40;100864.00;;;7.85;100.00
10460;BME280;54412;51.206;6.888;2023-12-20T07:42:09;100859.84;;;7.80;100.00
10460;BME280;54412;51.206;6.888;2023-12-20T07:44:35;100853.41;;;7.64;100.00
10460;BME280;54412;51.206;6.888;2023-12-20T07:47:04;100852.59;;;7.62;100.00
10460;BME280;54412;51.206;6.888;2023-12-20T07:49:31;100872.00;;;7.82;100.00
10460;BME280;54412;51.206;6.888;2023-12-20T07:51:57;100864.69;;;7.90;100.00
10460;BME280;54412;51.206;6.888;2023-12-20T07:54:23;100864.00;;;7.85;100.00
10460;BME280;54412;51.206;6.888;2023-12-20T07:56:49;100871.84;;;7.87;100.00
10460;BME280;54412;51.206;6.888;2023-12-20T07:59:15;100865.81;;;8.08;100.00
10460;BME280;54412;51.206;6.888;2023-12-20T08:01:41;100870.50;;;7.75;100.00
10460;BME280;54412;51.206;6.888;2023-12-20T08:04:07;100863.47;;;7.76;100.00
10460;BME280;54412;51.206;6.888;2023-12-20T08:06:33;100859.13;;;7.99;100.00
10460;BME280;54412;51.206;6.888;2023-12-20T08:08:59;100861.19;;;7.91;100.00
10460;BME280;54412;51.206;6.888;2023-12-20T08:11:24;100859.25;;;7.72;100.00
10460;BME280;54412;51.206;6.888;2023-12-20T08:13:50;100863.72;;;7.68;100.00
10460;BME280;54412;51.206;6.888;2023-12-20T08:16:16;100873.28;;;7.71;100.00
10460;BME280;54412;51.206;6.888;2023-12-20T08:18:43;100875.25;;;7.64;100.00
10460;BME280;54412;51.206;6.888;2023-12-20T08:21:09;100874.03;;;7.74;100.00
10460;BME280;54412;51.206;6.888;2023-12-20T08:23:35;100870.41;;;7.78;100.00
10460;BME280;54412;51.206;6.888;2023-12-20T08:26:07;100862.94;;;7.91;99.99
10460;BME280;54412;51.206;6.888;2023-12-20T08:28:33;100870.06;;;7.87;100.00
10460;BME280;54412;51.206;6.888;2023-12-20T08:31:00;100862.75;;;7.95;100.00
10460;BME280;54412;51.206;6.888;2023-12-20T08:33:26;100861.88;;;7.96;99.91
10460;BME280;54412;51.206;6.888;2023-12-20T08:35:52;100867.03;;;7.75;99.13
10460;BME280;54412;51.206;6.888;2023-12-20T08:38:17;100880.22;;;7.73;100.00
10460;BME280;54412;51.206;6.888;2023-12-20T08:40:44;100881.56;;;7.59;100.00
10460;BME280;54412;51.206;6.888;2023-12-20T08:43:10;100879.97;;;7.79;100.00
10460;BME280;54412;51.206;6.888;2023-12-20T08:45:36;100882.72;;;7.76;99.86
10460;BME280;54412;51.206;6.888;2023-12-20T08:48:02;100889.78;;;7.74;100.00
10460;BME280;54412;51.206;6.888;2023-12-20T08:50:29;100886.06;;;7.55;100.00
10460;BME280;54412;51.206;6.888;2023-12-20T08:52:55;100874.16;;;7.45;100.00
10460;BME280;54412;51.206;6.888;2023-12-20T08:55:20;100881.63;;;7.57;100.00
10460;BME280;54412;51.206;6.888;2023-12-20T08:57:46;100884.28;;;7.56;100.00
10460;BME280;54412;51.206;6.888;2023-12-20T09:00:13;100890.22;;;7.62;100.00
10460;BME280;54412;51.206;6.888;2023-12-20T09:02:39;100886.09;;;7.80;100.00
10460;BME280;54412;51.206;6.888;2023-12-20T09:05:04;100879.09;;;7.80;100.00
10460;BME280;54412;51.206;6.888;2023-12-20T09:07:30;100884.53;;;7.74;100.00
10460;BME280;54412;51.206;6.888;2023-12-20T09:09:58;100870.91;;;7.63;99.78
10460;BME280;54412;51.206;6.888;2023-12-20T09:12:24;100873.66;;;7.60;99.84
10460;BME280;54412;51.206;6.888;2023-12-20T09:14:51;100874.03;;;7.74;100.00
10460;BME280;54412;51.206;6.888;2023-12-20T09:17:18;100871.41;;;7.74;100.00
10460;BME280;54412;51.206;6.888;2023-12-20T09:19:45;100870.34;;;7.80;99.48
10460;BME280;54412;51.206;6.888;2023-12-20T09:22:11;100869.81;;;7.95;99.17
10460;BME280;54412;51.206;6.888;2023-12-20T09:24:37;100878.28;;;7.78;99.37
10460;BME280;54412;51.206;6.888;2023-12-20T09:27:04;100871.28;;;7.77;99.22
10460;BME280;54412;51.206;6.888;2023-12-20T09:29:31;100876.16;;;7.63;100.00
10460;BME280;54412;51.206;6.888;2023-12-20T09:31:57;100876.91;;;7.67;99.88
10460;BME280;54412;51.206;6.888;2023-12-20T09:34:23;100874.50;;;7.61;100.00
10460;BME280;54412;51.206;6.888;2023-12-20T09:36:49;100870.53;;;7.74;100.00
10460;BME280;54412;51.206;6.888;2023-12-20T09:39:18;100861.88;;;7.96;99.32
10460;BME280;54412;51.206;6.888;2023-12-20T09:42:04;100880.25;;;7.72;99.79
10460;BME280;54412;51.206;6.888;2023-12-20T09:44:31;100868.13;;;7.92;98.87
10460;BME280;54412;51.206;6.888;2023-12-20T09:46:58;100869.03;;;7.67;99.76
10460;BME280;54412;51.206;6.888;2023-12-20T09:49:28;100871.59;;;7.68;99.12
10460;BME280;54412;51.206;6.888;2023-12-20T09:51:54;100867.47;;;7.61;99.41
10460;BME280;54412;51.206;6.888;2023-12-20T09:54:22;100861.34;;;7.62;100.00
10460;BME280;54412;51.206;6.888;2023-12-20T09:56:49;100865.72;;;7.62;100.00
10460;BME280;54412;51.206;6.888;2023-12-20T09:59:15;100868.34;;;7.86;99.70
10460;BME280;54412;51.206;6.888;2023-12-20T10:01:42;100852.91;;;7.77;99.71
10460;BME280;54412;51.206;6.888;2023-12-20T10:04:10;100863.75;;;7.93;97.95
10460;BME280;54412;51.206;6.888;2023-12-20T10:06:42;100872.97;;;7.80;98.78
10460;BME280;54412;51.206;6.888;2023-12-20T10:09:09;100864.94;;;7.84;99.23
10460;BME280;54412;51.206;6.888;2023-12-20T10:11:36;100862.34;;;7.83;99.09
10460;BME280;54412;51.206;6.888;2023-12-20T10:14:06;100867.19;;;7.95;99.00
10460;BME280;54412;51.206;6.888;2023-12-20T10:16:33;100867.88;;;8.00;98.50
10460;BME280;54412;51.206;6.888;2023-12-20T10:19:00;100864.66;;;7.92;98.26
10460;BME280;54412;51.206;6.888;2023-12-20T10:21:27;100864.00;;;7.85;98.96
10460;BME280;54412;51.206;6.888;2023-12-20T10:23:56;100860.38;;;7.89;98.49
10460;BME280;54412;51.206;6.888;2023-12-20T10:26:25;100848.78;;;7.70;99.46
10460;BME280;54412;51.206;6.888;2023-12-20T10:28:54;100849.06;;;7.87;98.86
10460;BME280;54412;51.206;6.888;2023-12-20T10:31:32;100842.81;;;7.90;98.50
10460;BME280;54412;51.206;6.888;2023-12-20T10:33:59;100851.63;;;7.89;97.98
10460;BME280;54412;51.206;6.888;2023-12-20T10:36:27;100838.06;;;7.76;98.22
10460;BME280;54412;51.206;6.888;2023-12-20T10:38:55;100835.94;;;7.63;99.38
10460;BME280;54412;51.206;6.888;2023-12-20T10:41:33;100822.38;;;7.75;99.11
10460;BME280;54412;51.206;6.888;2023-12-20T10:44:03;100825.22;;;7.69;99.14
10460;BME280;54412;51.206;6.888;2023-12-20T10:46:31;100828.50;;;7.75;98.42
10460;BME280;54412;51.206;6.888;2023-12-20T10:48:59;100821.97;;;7.62;99.50
10460;BME280;54412;51.206;6.888;2023-12-20T10:51:25;100826.38;;;7.85;99.00
10460;BME280;54412;51.206;6.888;2023-12-20T10:53:56;100828.97;;;7.62;99.55
10460;BME280;54412;51.206;6.888;2023-12-20T10:56:22;100830.19;;;7.76;99.55
10460;BME280;54412;51.206;6.888;2023-12-20T10:58:50;100816.13;;;7.79;98.69
10460;BME280;54412;51.206;6.888;2023-12-20T11:01:19;100815.41;;;7.74;98.53
10460;BME280;54412;51.206;6.888;2023-12-20T11:03:51;100821.41;;;7.77;98.65
10460;BME280;54412;51.206;6.888;2023-12-20T11:06:53;100813.47;;;8.03;98.22
10460;BME280;54412;51.206;6.888;2023-12-20T11:09:24;100822.31;;;7.76;98.75
10460;BME280;54412;51.206;6.888;2023-12-20T11:17:10;100822.94;;;7.83;100.00
10460;BME280;54412;51.206;6.888;2023-12-20T11:22:24;100809.75;;;8.09;99.49
10460;BME280;54412;51.206;6.888;2023-12-20T11:24:52;100789.19;;;7.97;99.83
10460;BME280;54412;51.206;6.888;2023-12-20T11:27:19;100810.72;;;8.06;98.64
10460;BME280;54412;51.206;6.888;2023-12-20T11:29:53;100796.69;;;8.30;99.90
10460;BME280;54412;51.206;6.888;2023-12-20T11:34:55;100801.47;;;8.19;98.00
10460;BME280;54412;51.206;6.888;2023-12-20T11:37:21;100796.00;;;7.78;99.29
10460;BME280;54412;51.206;6.888;2023-12-20T11:40:01;100812.78;;;7.98;99.44
10460;BME280;54412;51.206;6.888;2023-12-20T11:42:28;100804.63;;;7.81;99.91
10460;BME280;54412;51.206;6.888;2023-12-20T11:44:53;100810.91;;;7.77;100.00
10460;BME280;54412;51.206;6.888;2023-12-20T11:47:19;100796.31;;;7.93;99.45
10460;BME280;54412;51.206;6.888;2023-12-20T11:49:48;100794.72;;;7.89;99.56
10460;BME280;54412;51.206;6.888;2023-12-20T11:52:14;100793.47;;;7.99;99.25
10460;BME280;54412;51.206;6.888;2023-12-20T11:54:40;100798.09;;;7.93;99.91
10460;BME280;54412;51.206;6.888;2023-12-20T11:57:05;100786.25;;;8.04;99.42
10460;BME280;54412;51.206;6.888;2023-12-20T11:59:31;100781.19;;;8.00;99.45
10460;BME280;54412;51.206;6.888;2023-12-20T12:01:58;100792.31;;;8.06;98.67
10460;BME280;54412;51.206;6.888;2023-12-20T12:04:27;100772.31;;;8.02;98.57
10460;BME280;54412;51.206;6.888;2023-12-20T12:06:53;100778.63;;;7.98;99.04
10460;BME280;54412;51.206;6.888;2023-12-20T12:09:19;100764.28;;;8.07;99.91
10460;BME280;54412;51.206;6.888;2023-12-20T12:11:45;100770.41;;;8.07;99.82
10460;BME280;54412;51.206;6.888;2023-12-20T12:14:11;100765.22;;;8.06;99.37
10460;BME280;54412;51.206;6.888;2023-12-20T12:16:37;100761.81;;;8.27;98.36
10460;BME280;54412;51.206;6.888;2023-12-20T12:19:02;100764.84;;;8.15;98.75
10460;BME280;54412;51.206;6.888;2023-12-20T12:21:29;100775.66;;;8.07;98.62
10460;BME280;54412;51.206;6.888;2023-12-20T12:24:09;100766.13;;;8.05;98.68
10460;BME280;54412;51.206;6.888;2023-12-20T12:26:35;100760.78;;;8.06;98.91
10460;BME280;54412;51.206;6.888;2023-12-20T12:29:00;100760.91;;;8.03;99.06
10460;BME280;54412;51.206;6.888;2023-12-20T12:31:26;100760.13;;;8.01;98.99
10460;BME280;54412;51.206;6.888;2023-12-20T12:33:52;100763.63;;;8.02;99.49
10460;BME280;54412;51.206;6.888;2023-12-20T12:36:18;100756.91;;;7.93;100.00
10460;BME280;54412;51.206;6.888;2023-12-20T12:38:43;100744.69;;;8.15;99.61
10460;BME280;54412;51.206;6.888;2023-12-20T12:41:12;100751.66;;;7.93;100.00
10460;BME280;54412;51.206;6.888;2023-12-20T12:43:38;100741.28;;;7.90;100.00
10460;BME280;54412;51.206;6.888;2023-12-20T12:46:04;100752.47;;;7.95;100.00
10460;BME280;54412;51.206;6.888;2023-12-20T12:48:29;100750.28;;;8.06;100.00
10460;BME280;54412;51.206;6.888;2023-12-20T12:50:55;100730.81;;;8.12;100.00
10460;BME280;54412;51.206;6.888;2023-12-20T12:53:25;100735.41;;;8.30;99.45
10460;BME280;54412;51.206;6.888;2023-12-20T12:55:52;100747.88;;;8.25;99.96
10460;BME280;54412;51.206;6.888;2023-12-20T12:58:19;100737.16;;;8.06;100.00
10460;BME280;54412;51.206;6.888;2023-12-20T13:00:45;100733.28;;;8.16;100.00